Accueil
METAR-TAF:

METAR-TAF

Aéroports :

Turin, Italie

Aéroport Sandro-Pertini de Turin Caselle

latitude: 45-13N, longitude: 007-39E, altitude: 301 m

Observation

Le bulletin a été fait il y a 39 minutes, à 02:50 UTC
Vent 2 kt de nord-est
Température 10°C
Humidité 82%
Pression 1018 hPa
Visibilité: 5000 m
brume

METAR: LIMF 190250Z 04002KT 5000 BR NSC 10/07 Q1018

Heure: 05:29 (03:29 UTC)

Prévision

Le bulletin a été fait il y a 4 heures et 29 minutes, à 23:00 UTC
Prévision valable du 19 à 00 UTC au 19 à 24 UTC
Vent 5 kt de nord-ouest
Visibilité: 7000 m

TAF: LIMF 182300Z 1900/1924 31005KT 7000 NSC

Observations et prévisions météorologiques de plus de 4000 aéroports (messages METAR et TAF).

Les stations disponibles sont représentées par des disques jaunes et rouges sur la carte.

Passer la souris dessus pour voir le nom de la station.

Cliquer dessus pour voir les observations et prévisions météorologiques.

Pour changer de carte: cliquez sur les boutons verts avec une croix noire pour zoomer, sur le bouton vert avec un tiret pour effectuer un zoom arrière, ou sur les flèches vertes pour les cartes adjacentes.


METAR-TAF: